Time;durP1;ratioP1;P1;durP2;ratioP2;P2;SDS_P1;SDS_P2;PMS_P1;PMS_P2;Temp;Humidity;BMP_temperature;BMP_pressure;BME280_temperature;BME280_humidity;BME280_pressure;Samples;Min_cycle;Max_cycle;Signal;HPM_P1;HPM_P2
2021/04/25 00:02:08;;;;;;;6.68;4.15;;;6.70;72.50;;;;;;5055948;28;20108;-76
2021/04/25 00:04:34;;;;;;;12.38;4.85;;;6.60;72.90;;;;;;5055851;28;20052;-76
2021/04/25 00:07:01;;;;;;;8.73;4.75;;;6.50;73.30;;;;;;5055593;28;20037;-76
2021/04/25 00:09:27;;;;;;;8.23;4.25;;;6.50;73.50;;;;;;5057960;28;20047;-76
2021/04/25 00:11:54;;;;;;;10.98;4.57;;;6.50;73.60;;;;;;5072225;28;20037;-75
2021/04/25 00:14:21;;;;;;;9.02;4.72;;;6.50;73.60;;;;;;5056584;28;20037;-76
2021/04/25 00:16:47;;;;;;;9.50;4.97;;;6.50;73.60;;;;;;5072559;28;20044;-76
2021/04/25 00:19:13;;;;;;;8.68;5.00;;;6.50;73.50;;;;;;5064503;28;20032;-74
2021/04/25 00:21:39;;;;;;;9.98;5.05;;;6.50;73.70;;;;;;5068506;28;20036;-75
2021/04/25 00:24:06;;;;;;;9.55;4.43;;;6.50;73.60;;;;;;5055132;28;20036;-76
2021/04/25 00:26:32;;;;;;;8.55;4.90;;;6.50;73.80;;;;;;5063773;28;20040;-75
2021/04/25 00:28:58;;;;;;;10.38;5.78;;;6.40;73.90;;;;;;5065481;28;20032;-74
2021/04/25 00:31:25;;;;;;;13.15;4.97;;;6.40;73.80;;;;;;5058259;28;20048;-74
2021/04/25 00:33:51;;;;;;;12.70;6.32;;;6.40;74.20;;;;;;5060942;28;20029;-75
2021/04/25 00:36:17;;;;;;;12.00;5.10;;;6.30;74.70;;;;;;5068875;28;20037;-74
2021/04/25 00:38:43;;;;;;;10.40;5.13;;;6.20;75.10;;;;;;5054612;28;20037;-75
2021/04/25 00:41:09;;;;;;;9.82;5.57;;;6.20;75.40;;;;;;5054652;28;20041;-75
2021/04/25 00:43:36;;;;;;;8.50;5.10;;;6.10;75.80;;;;;;5054444;28;20021;-75
2021/04/25 00:46:02;;;;;;;11.98;5.30;;;6.10;76.30;;;;;;5054777;28;20041;-75
2021/04/25 00:48:29;;;;;;;7.88;4.82;;;6.10;76.40;;;;;;5054553;28;20043;-75
2021/04/25 00:50:55;;;;;;;7.35;4.60;;;6.10;76.60;;;;;;5054625;28;20028;-75
2021/04/25 00:53:22;;;;;;;7.88;4.55;;;6.10;77.30;;;;;;5061301;28;20032;-76
2021/04/25 00:55:50;;;;;;;9.30;5.07;;;5.90;77.80;;;;;;5062421;28;20044;-75
2021/04/25 00:58:18;;;;;;;7.50;4.53;;;5.90;78.70;;;;;;5054108;28;20052;-74
2021/04/25 01:00:45;;;;;;;9.88;4.80;;;5.80;79.60;;;;;;5063009;28;20395;-74
2021/04/25 01:03:12;;;;;;;10.65;4.45;;;5.70;80.50;;;;;;5064612;28;20033;-73
2021/04/25 01:05:38;;;;;;;12.63;5.95;;;5.60;81.50;;;;;;5072995;28;20057;-77
2021/04/25 01:08:05;;;;;;;10.65;5.18;;;5.60;82.00;;;;;;5054012;28;20048;-77
2021/04/25 01:10:32;;;;;;;9.68;6.32;;;5.60;81.90;;;;;;5072300;28;20033;-74
2021/04/25 01:13:00;;;;;;;12.75;5.45;;;5.60;82.30;;;;;;5059540;28;20041;-76
2021/04/25 01:15:26;;;;;;;11.40;6.15;;;5.50;82.90;;;;;;5063158;28;20037;-74
2021/04/25 01:17:53;;;;;;;9.57;5.07;;;5.60;82.90;;;;;;5060997;28;20029;-74
2021/04/25 01:20:22;;;;;;;8.60;5.30;;;5.60;82.70;;;;;;5054113;28;20474;-75
2021/04/25 01:22:49;;;;;;;12.00;6.03;;;5.70;82.80;;;;;;5053842;28;20059;-74
2021/04/25 01:25:17;;;;;;;11.70;5.13;;;5.60;83.00;;;;;;5053512;28;20033;-75
2021/04/25 01:27:43;;;;;;;14.52;6.18;;;5.60;83.70;;;;;;5053697;28;20502;-76
2021/04/25 01:30:12;;;;;;;8.40;5.43;;;5.50;84.00;;;;;;5060673;28;20043;-75
2021/04/25 01:32:41;;;;;;;11.98;7.15;;;5.50;84.50;;;;;;5054449;28;20056;-75
2021/04/25 01:35:14;;;;;;;10.60;5.65;;;5.40;85.10;;;;;;5053587;28;20048;-76
2021/04/25 01:37:41;;;;;;;11.85;6.18;;;5.40;85.90;;;;;;5053853;28;20048;-76
2021/04/25 01:40:09;;;;;;;12.07;6.00;;;5.40;86.60;;;;;;5061357;28;20029;-75
2021/04/25 01:42:35;;;;;;;13.57;6.22;;;5.40;87.00;;;;;;5061155;28;20032;-76
2021/04/25 01:45:01;;;;;;;12.40;5.07;;;5.20;87.80;;;;;;5068996;28;20048;-77
2021/04/25 01:47:28;;;;;;;11.52;6.60;;;5.20;88.60;;;;;;5053328;28;20040;-75
2021/04/25 01:49:54;;;;;;;11.55;5.97;;;5.10;89.80;;;;;;5052716;28;20458;-76
2021/04/25 01:52:20;;;;;;;9.73;5.78;;;5.10;90.10;;;;;;5064770;28;20039;-75
2021/04/25 01:54:46;;;;;;;11.85;5.55;;;5.00;90.60;;;;;;5059191;28;20041;-75
2021/04/25 01:57:13;;;;;;;10.82;6.15;;;5.00;91.10;;;;;;5052945;28;20047;-74
2021/04/25 01:59:39;;;;;;;12.35;5.88;;;5.00;91.40;;;;;;5053062;28;20036;-76
2021/04/25 02:02:05;;;;;;;10.95;5.63;;;5.00;91.50;;;;;;5053038;28;20033;-76
2021/04/25 02:04:31;;;;;;;14.15;7.55;;;5.10;91.40;;;;;;5053085;28;20049;-76
2021/04/25 02:06:57;;;;;;;14.35;7.20;;;5.10;91.40;;;;;;5053128;28;20029;-75
2021/04/25 02:09:24;;;;;;;11.20;6.43;;;5.10;91.50;;;;;;5052598;28;20031;-74
2021/04/25 02:11:50;;;;;;;10.27;5.00;;;5.10;91.50;;;;;;5056227;28;20033;-74
2021/04/25 02:14:16;;;;;;;14.95;6.53;;;5.10;91.40;;;;;;5064084;28;20481;-75
2021/04/25 02:16:42;;;;;;;13.85;6.43;;;5.10;91.60;;;;;;5052882;28;20040;-75
2021/04/25 02:19:09;;;;;;;17.75;6.88;;;5.00;91.80;;;;;;5053002;28;20025;-76
2021/04/25 02:21:35;;;;;;;13.48;6.78;;;5.00;92.10;;;;;;5067008;28;20045;-75
2021/04/25 02:24:01;;;;;;;12.57;7.30;;;5.00;92.20;;;;;;5068843;28;20033;-74
2021/04/25 02:26:27;;;;;;;14.38;6.85;;;5.00;92.40;;;;;;5066466;28;20040;-75
2021/04/25 02:28:53;;;;;;;14.93;6.97;;;4.90;92.70;;;;;;5052736;28;20036;-74
2021/04/25 02:31:20;;;;;;;13.23;6.65;;;4.90;93.10;;;;;;5068867;28;20039;-75
2021/04/25 02:33:46;;;;;;;15.60;6.78;;;4.80;93.30;;;;;;5052786;28;20048;-75
2021/04/25 02:36:12;;;;;;;16.55;6.70;;;4.80;93.60;;;;;;5052371;28;20052;-74
2021/04/25 02:38:38;;;;;;;18.58;7.43;;;4.70;93.90;;;;;;5053081;28;20037;-75
2021/04/25 02:41:05;;;;;;;13.07;6.88;;;4.70;94.10;;;;;;5052587;28;20073;-75
2021/04/25 02:43:31;;;;;;;12.77;7.22;;;4.70;94.30;;;;;;5052223;28;20462;-75
2021/04/25 02:45:58;;;;;;;15.02;7.30;;;4.70;94.50;;;;;;5052710;28;20033;-76
2021/04/25 02:48:24;;;;;;;14.88;6.93;;;4.70;94.70;;;;;;5059401;28;20029;-75
2021/04/25 02:50:50;;;;;;;13.55;6.78;;;4.70;94.70;;;;;;5053030;28;20032;-75
2021/04/25 02:53:17;;;;;;;12.13;6.43;;;4.60;94.80;;;;;;5069848;28;20033;-76
2021/04/25 02:55:43;;;;;;;12.05;6.82;;;4.70;94.80;;;;;;5051523;28;20048;-74
2021/04/25 02:58:10;;;;;;;12.18;7.88;;;4.60;95.00;;;;;;5051945;28;20060;-75
2021/04/25 03:00:37;;;;;;;14.70;6.53;;;4.60;95.20;;;;;;5051858;28;20041;-75
2021/04/25 03:03:04;;;;;;;11.02;6.60;;;4.60;95.30;;;;;;5052336;28;20466;-75
2021/04/25 03:05:30;;;;;;;15.98;8.05;;;4.60;95.40;;;;;;5061258;28;20029;-75
2021/04/25 03:07:56;;;;;;;11.48;6.80;;;4.50;95.70;;;;;;5052628;28;20036;-76
2021/04/25 03:10:24;;;;;;;14.00;7.13;;;4.50;96.00;;;;;;5071687;28;20028;-75
2021/04/25 03:12:51;;;;;;;10.27;6.05;;;4.50;96.10;;;;;;5053898;28;20029;-75
2021/04/25 03:15:19;;;;;;;12.02;6.32;;;4.50;96.20;;;;;;5069378;28;20044;-75
2021/04/25 03:17:47;;;;;;;13.88;7.10;;;4.40;96.50;;;;;;5062216;28;20036;-75
2021/04/25 03:20:16;;;;;;;14.90;7.05;;;4.40;96.70;;;;;;5052187;28;20390;-75
2021/04/25 03:22:43;;;;;;;13.82;7.28;;;4.30;96.90;;;;;;5051911;28;20028;-75
2021/04/25 03:25:11;;;;;;;14.25;7.28;;;4.20;97.30;;;;;;5069439;28;20048;-75
2021/04/25 03:27:38;;;;;;;13.27;7.30;;;4.20;97.90;;;;;;5053188;28;20044;-75
2021/04/25 03:30:06;;;;;;;16.30;7.50;;;4.10;98.20;;;;;;5051627;28;20048;-75
2021/04/25 03:32:32;;;;;;;12.43;7.40;;;4.10;98.60;;;;;;5051660;28;20048;-76
2021/04/25 03:34:58;;;;;;;11.77;7.20;;;4.10;98.60;;;;;;5045721;28;20052;-74
2021/04/25 03:37:25;;;;;;;13.38;6.78;;;4.10;98.90;;;;;;5051522;28;20036;-74
2021/04/25 03:39:51;;;;;;;13.57;7.18;;;4.00;99.10;;;;;;5063319;28;20530;-75
2021/04/25 03:42:17;;;;;;;15.13;7.85;;;4.10;99.20;;;;;;5057577;28;20052;-75
2021/04/25 03:44:43;;;;;;;18.52;6.78;;;4.10;99.00;;;;;;5051819;28;20033;-76
2021/04/25 03:47:10;;;;;;;15.48;7.10;;;4.10;99.20;;;;;;5051851;28;20037;-76
2021/04/25 03:49:36;;;;;;;14.32;7.47;;;4.10;99.00;;;;;;5062366;28;20025;-75
2021/04/25 03:52:02;;;;;;;12.13;7.28;;;4.10;98.70;;;;;;5051757;28;20454;-75
2021/04/25 03:54:32;;;;;;;17.85;7.32;;;4.10;98.70;;;;;;5051464;28;20033;-74
2021/04/25 03:56:59;;;;;;;17.42;7.47;;;4.20;98.30;;;;;;5062804;28;20032;-75
2021/04/25 03:59:26;;;;;;;13.18;6.45;;;4.20;98.20;;;;;;5052132;28;20059;-75
2021/04/25 04:01:53;;;;;;;14.80;6.70;;;4.20;98.10;;;;;;5054794;28;20040;-75
2021/04/25 04:04:20;;;;;;;14.80;6.32;;;4.20;98.10;;;;;;5069601;28;20047;-74
2021/04/25 04:06:46;;;;;;;12.13;7.00;;;4.10;98.00;;;;;;5051684;28;20462;-76
2021/04/25 04:09:14;;;;;;;10.98;6.57;;;4.10;98.30;;;;;;5058273;28;20028;-76
2021/04/25 04:11:41;;;;;;;13.85;7.25;;;4.00;98.50;;;;;;5052554;28;20036;-75
2021/04/25 04:14:07;;;;;;;17.35;7.22;;;4.00;98.60;;;;;;5054105;28;20040;-74
2021/04/25 04:16:33;;;;;;;10.57;6.22;;;4.00;98.80;;;;;;5055761;28;20060;-75
2021/04/25 04:18:59;;;;;;;14.88;7.72;;;3.90;99.00;;;;;;5055117;28;20041;-74
2021/04/25 04:21:26;;;;;;;13.15;6.85;;;3.90;99.10;;;;;;5054399;28;20466;-74
2021/04/25 04:23:52;;;;;;;16.20;7.50;;;3.90;99.40;;;;;;5054924;28;20045;-75
2021/04/25 04:26:18;;;;;;;17.52;7.13;;;3.90;99.30;;;;;;5054797;28;20056;-74
2021/04/25 04:28:45;;;;;;;15.77;7.13;;;3.90;99.40;;;;;;5054747;28;20048;-75
2021/04/25 04:31:11;;;;;;;11.32;7.50;;;3.90;99.40;;;;;;5054734;28;20060;-75
2021/04/25 04:33:37;;;;;;;15.95;6.35;;;3.90;99.60;;;;;;5054251;28;20080;-75
2021/04/25 04:36:05;;;;;;;11.30;7.22;;;3.90;99.80;;;;;;5055260;28;20387;-75
2021/04/25 04:38:31;;;;;;;15.95;6.55;;;3.80;99.80;;;;;;5054362;28;20040;-75
2021/04/25 04:40:58;;;;;;;12.75;6.65;;;3.80;99.90;;;;;;5054801;28;20044;-73
2021/04/25 04:43:24;;;;;;;12.25;7.25;;;3.90;99.90;;;;;;5054550;28;20036;-73
2021/04/25 04:45:52;;;;;;;13.88;6.93;;;3.90;99.70;;;;;;5054730;28;20036;-75
2021/04/25 04:48:19;;;;;;;11.23;6.07;;;3.90;99.50;;;;;;5054356;28;20024;-73
2021/04/25 04:50:46;;;;;;;17.90;7.28;;;4.00;99.30;;;;;;5068456;28;20033;-74
2021/04/25 04:53:12;;;;;;;13.13;6.63;;;4.00;99.20;;;;;;5062273;28;20405;-74
2021/04/25 04:55:39;;;;;;;15.07;7.03;;;4.00;99.10;;;;;;5065589;28;20393;-74
2021/04/25 04:58:05;;;;;;;11.07;7.65;;;4.50;98.50;;;;;;5063920;28;20037;-75
2021/04/25 05:00:31;;;;;;;15.70;6.55;;;5.10;95.90;;;;;;5058747;28;20020;-76
2021/04/25 05:02:58;;;;;;;9.23;5.72;;;5.50;93.20;;;;;;5056918;28;20048;-76
2021/04/25 05:05:24;;;;;;;11.95;6.63;;;5.80;91.70;;;;;;5062812;28;20611;-76
2021/04/25 05:07:50;;;;;;;11.48;5.78;;;6.00;90.60;;;;;;5054406;28;20382;-77
2021/04/25 05:10:17;;;;;;;10.32;6.07;;;6.30;88.30;;;;;;5065643;28;20032;-76
2021/04/25 05:12:43;;;;;;;11.95;6.03;;;6.50;85.50;;;;;;5056791;28;20119;-74
2021/04/25 05:15:09;;;;;;;12.77;5.90;;;6.50;84.80;;;;;;5054003;28;20033;-74
2021/04/25 05:17:36;;;;;;;11.15;5.72;;;6.80;83.40;;;;;;5053478;28;20032;-74
2021/04/25 05:20:03;;;;;;;11.27;6.30;;;6.80;81.60;;;;;;5054107;28;20113;-76
2021/04/25 05:22:29;;;;;;;9.10;5.47;;;7.00;80.90;;;;;;5053503;28;20036;-74
2021/04/25 05:24:55;;;;;;;9.60;5.15;;;7.40;78.80;;;;;;5059271;28;20494;-75
2021/04/25 05:27:22;;;;;;;13.13;5.65;;;7.30;78.00;;;;;;5059402;28;20104;-75
2021/04/25 05:29:48;;;;;;;12.95;5.60;;;7.40;77.00;;;;;;5055508;28;20112;-75
2021/04/25 05:32:15;;;;;;;9.30;5.50;;;7.70;76.00;;;;;;5062933;28;20045;-75
2021/04/25 05:34:41;;;;;;;8.75;5.38;;;7.90;74.10;;;;;;5059218;28;20041;-75
2021/04/25 05:37:07;;;;;;;11.43;5.32;;;8.30;73.10;;;;;;5063198;28;20029;-75
2021/04/25 05:39:33;;;;;;;9.73;5.40;;;8.10;72.30;;;;;;5053327;28;20037;-75
2021/04/25 05:42:00;;;;;;;10.15;5.57;;;8.40;71.70;;;;;;5067739;28;20044;-76
2021/04/25 05:44:27;;;;;;;10.30;5.20;;;8.60;69.70;;;;;;5060164;28;20029;-75
2021/04/25 05:46:56;;;;;;;12.15;6.28;;;8.50;69.90;;;;;;5068712;28;20067;-75
2021/04/25 05:49:23;;;;;;;10.43;5.35;;;8.80;69.50;;;;;;5056216;28;20370;-75
2021/04/25 05:51:50;;;;;;;7.72;5.68;;;8.70;68.70;;;;;;5057681;28;20041;-76
2021/04/25 05:54:16;;;;;;;8.20;5.78;;;8.80;68.00;;;;;;5053312;28;20044;-76
2021/04/25 05:56:42;;;;;;;8.48;4.68;;;8.90;68.20;;;;;;5053594;28;20048;-77
2021/04/25 05:59:09;;;;;;;9.95;5.00;;;9.00;67.40;;;;;;5053875;28;20037;-76
2021/04/25 06:01:35;;;;;;;12.45;5.78;;;9.40;65.70;;;;;;5052675;28;20040;-77
2021/04/25 06:04:01;;;;;;;10.88;5.32;;;9.20;65.40;;;;;;5053315;28;20398;-76
2021/04/25 06:06:27;;;;;;;8.10;4.65;;;8.70;67.60;;;;;;5052791;28;20029;-77
2021/04/25 06:08:55;;;;;;;7.97;5.25;;;9.10;66.20;;;;;;5071989;28;20082;-76
2021/04/25 06:11:21;;;;;;;8.07;4.55;;;8.90;66.60;;;;;;5056667;28;20033;-76
2021/04/25 06:13:48;;;;;;;10.55;5.38;;;8.80;66.40;;;;;;5053075;28;20060;-76
2021/04/25 06:16:14;;;;;;;9.25;4.65;;;8.70;66.70;;;;;;5053161;28;20033;-76
2021/04/25 06:18:40;;;;;;;7.97;4.90;;;9.30;65.10;;;;;;5066109;28;20032;-76
2021/04/25 06:21:06;;;;;;;10.05;5.07;;;9.50;64.30;;;;;;5056951;28;20045;-75
2021/04/25 06:23:32;;;;;;;7.82;4.78;;;9.60;64.20;;;;;;5069302;28;20028;-75
2021/04/25 06:25:59;;;;;;;10.13;5.22;;;9.60;64.00;;;;;;5057812;28;20031;-76
2021/04/25 06:28:28;;;;;;;10.80;4.20;;;9.90;63.00;;;;;;5052318;28;20044;-75
2021/04/25 06:30:57;;;;;;;8.57;4.38;;;10.10;62.70;;;;;;5063987;28;20055;-75
2021/04/25 06:33:24;;;;;;;11.50;4.97;;;10.70;60.50;;;;;;5056101;28;20474;-75
2021/04/25 06:35:50;;;;;;;8.25;4.53;;;11.70;58.50;;;;;;5052288;28;20024;-75
2021/04/25 06:38:16;;;;;;;8.45;5.03;;;11.70;57.00;;;;;;5052277;28;20045;-75
2021/04/25 06:40:43;;;;;;;7.32;4.30;;;11.90;57.00;;;;;;5052668;28;20033;-76
2021/04/25 06:43:09;;;;;;;9.10;4.55;;;11.30;58.00;;;;;;5052517;28;20056;-75
2021/04/25 06:45:36;;;;;;;6.32;4.13;;;11.00;58.30;;;;;;5052186;28;20502;-75
2021/04/25 06:48:03;;;;;;;7.10;4.22;;;10.70;59.00;;;;;;5065438;28;20036;-76
2021/04/25 06:50:29;;;;;;;7.20;4.97;;;11.20;58.00;;;;;;5062475;28;20045;-76
2021/04/25 06:52:55;;;;;;;12.38;4.60;;;10.80;58.80;;;;;;5067546;28;20055;-77
2021/04/25 06:55:24;;;;;;;8.32;4.40;;;10.90;58.80;;;;;;5052201;28;20033;-73
2021/04/25 06:57:51;;;;;;;8.50;4.60;;;10.90;58.70;;;;;;5055512;28;20036;-74
2021/04/25 07:00:21;;;;;;;9.07;4.30;;;11.80;57.00;;;;;;5051599;28;20047;-72
2021/04/25 07:02:47;;;;;;;8.13;4.60;;;11.90;56.60;;;;;;5059060;28;20024;-72
2021/04/25 07:05:14;;;;;;;7.32;4.38;;;12.50;55.90;;;;;;5057308;28;20049;-74
2021/04/25 07:07:40;;;;;;;10.43;5.00;;;12.40;55.30;;;;;;5051858;28;20048;-75
2021/04/25 07:10:07;;;;;;;9.10;4.65;;;12.10;55.50;;;;;;5052145;28;20032;-75
2021/04/25 07:12:34;;;;;;;11.60;4.93;;;11.90;56.10;;;;;;5051791;28;20405;-77
2021/04/25 07:15:00;;;;;;;8.73;4.57;;;11.20;57.60;;;;;;5052048;28;20039;-77
2021/04/25 07:17:27;;;;;;;7.43;4.45;;;12.30;56.30;;;;;;5051419;28;20383;-77
2021/04/25 07:19:53;;;;;;;6.22;3.72;;;13.10;53.80;;;;;;5056042;28;20047;-77
2021/04/25 07:22:20;;;;;;;6.80;4.13;;;12.60;54.50;;;;;;5070492;28;20051;-77
2021/04/25 07:24:46;;;;;;;7.38;4.13;;;13.30;53.50;;;;;;5058613;28;20036;-78
2021/04/25 07:27:12;;;;;;;8.57;4.60;;;12.90;54.00;;;;;;5051908;28;20037;-76
2021/04/25 07:29:38;;;;;;;5.93;3.92;;;12.50;55.60;;;;;;5052278;28;20032;-77
2021/04/25 07:32:06;;;;;;;8.95;4.78;;;13.20;53.50;;;;;;5071814;28;20048;-79
2021/04/25 07:34:32;;;;;;;6.68;4.40;;;13.00;53.20;;;;;;5057525;28;20056;-77
2021/04/25 07:36:59;;;;;;;9.25;4.63;;;13.00;53.80;;;;;;5070789;28;20469;-78
2021/04/25 07:39:26;;;;;;;8.45;5.03;;;13.30;52.80;;;;;;5059063;28;20049;-78
2021/04/25 07:41:52;;;;;;;10.15;4.43;;;13.30;53.00;;;;;;5066794;28;20028;-79
2021/04/25 07:44:18;;;;;;;8.32;4.65;;;12.80;53.90;;;;;;5069191;28;20088;-76
2021/04/25 07:46:45;;;;;;;10.30;5.07;;;12.60;54.10;;;;;;5070199;28;20032;-77
2021/04/25 07:49:11;;;;;;;12.85;5.00;;;12.70;54.40;;;;;;5057947;28;20044;-77
2021/04/25 07:51:38;;;;;;;9.80;5.07;;;13.80;51.60;;;;;;5073206;28;20388;-78
2021/04/25 07:54:04;;;;;;;7.53;5.07;;;14.30;50.00;;;;;;5068052;28;20048;-77
2021/04/25 07:56:30;;;;;;;7.95;5.10;;;14.40;50.90;;;;;;5070349;28;20029;-77
2021/04/25 07:58:57;;;;;;;12.05;5.43;;;15.10;49.80;;;;;;5073983;28;20028;-77
2021/04/25 08:01:24;;;;;;;8.32;4.60;;;14.20;50.80;;;;;;5067095;28;20445;-78
2021/04/25 08:03:51;;;;;;;7.43;4.68;;;13.90;50.30;;;;;;5059826;28;20048;-77
2021/04/25 08:06:17;;;;;;;7.38;4.35;;;14.40;50.50;;;;;;5056181;28;20029;-79
2021/04/25 08:08:43;;;;;;;7.60;4.82;;;15.40;47.40;;;;;;5055237;28;20037;-79
2021/04/25 08:11:11;;;;;;;7.53;5.05;;;15.00;48.40;;;;;;5089042;28;20039;-78
2021/04/25 08:13:37;;;;;;;8.75;4.95;;;14.30;49.60;;;;;;5082304;28;20047;-78
2021/04/25 08:16:04;;;;;;;8.00;4.80;;;14.50;49.20;;;;;;5079441;28;20036;-77
2021/04/25 08:18:30;;;;;;;8.52;4.53;;;14.80;49.60;;;;;;5056935;28;20385;-78
2021/04/25 08:20:56;;;;;;;9.68;4.35;;;15.10;48.30;;;;;;5077880;28;20473;-78
2021/04/25 08:23:23;;;;;;;7.80;4.93;;;15.10;46.80;;;;;;5068267;28;20028;-79
2021/04/25 08:25:49;;;;;;;8.13;4.55;;;15.20;46.90;;;;;;5069347;28;20032;-79
2021/04/25 08:28:15;;;;;;;6.80;4.10;;;15.20;46.80;;;;;;5067534;28;20059;-78
2021/04/25 08:30:41;;;;;;;8.23;4.65;;;14.50;48.20;;;;;;5081353;28;20378;-76
2021/04/25 08:33:08;;;;;;;11.55;5.40;;;14.40;47.60;;;;;;5087155;28;20529;-77
2021/04/25 08:35:34;;;;;;;5.75;3.75;;;14.30;48.00;;;;;;5089675;28;20040;-77
2021/04/25 08:38:00;;;;;;;6.22;3.95;;;14.80;46.90;;;;;;5084764;28;20040;-77
2021/04/25 08:40:27;;;;;;;7.28;4.00;;;15.50;46.40;;;;;;5071478;28;20048;-78
2021/04/25 08:42:54;;;;;;;9.77;4.82;;;15.80;44.80;;;;;;5076001;28;20033;-78
2021/04/25 08:45:20;;;;;;;8.45;5.40;;;14.90;45.80;;;;;;5080262;28;20090;-77
2021/04/25 08:47:50;;;;;;;10.98;5.57;;;15.10;45.60;;;;;;5062790;28;20454;-77
2021/04/25 08:50:16;;;;;;;9.00;4.72;;;15.20;45.70;;;;;;5080445;28;20139;-79
2021/04/25 08:52:44;;;;;;;7.32;4.57;;;14.40;47.20;;;;;;5065861;28;20044;-79
2021/04/25 08:55:12;;;;;;;8.82;4.07;;;14.20;48.10;;;;;;5066297;28;20493;-85
2021/04/25 08:57:39;;;;;;;8.15;4.47;;;14.20;48.00;;;;;;5075231;28;20139;-83
2021/04/25 09:00:07;;;;;;;8.10;5.07;;;15.00;46.40;;;;;;5072144;28;20158;-82
2021/04/25 09:02:34;;;;;;;8.60;4.53;;;15.00;47.70;;;;;;5070810;28;20031;-77
2021/04/25 09:05:01;;;;;;;7.93;3.67;;;16.00;45.30;;;;;;5069614;28;20029;-78
2021/04/25 09:07:27;;;;;;;7.70;4.50;;;16.10;45.30;;;;;;5053681;28;20029;-81
2021/04/25 09:09:55;;;;;;;8.43;4.82;;;16.70;44.90;;;;;;5053096;28;20144;-82
2021/04/25 09:12:33;;;;;;;8.35;3.88;;;17.40;43.30;;;;;;5053929;28;20033;-82
2021/04/25 09:15:05;;;;;;;8.27;4.35;;;15.40;43.60;;;;;;5068894;28;20102;-81
2021/04/25 09:17:52;;;;;;;7.60;3.78;;;15.70;43.20;;;;;;5056477;28;20032;-80
2021/04/25 09:20:20;;;;;;;6.55;3.53;;;15.40;42.80;;;;;;5054342;28;20040;-81
2021/04/25 09:22:51;;;;;;;9.48;3.83;;;15.90;42.40;;;;;;5054351;28;20450;-82
2021/04/25 09:25:19;;;;;;;8.27;4.03;;;16.30;42.90;;;;;;5070335;28;20385;-81
2021/04/25 09:27:48;;;;;;;6.63;3.55;;;16.70;42.60;;;;;;5058560;28;20405;-82
2021/04/25 09:30:24;;;;;;;9.20;3.60;;;16.50;42.90;;;;;;5065620;28;20099;-86
2021/04/25 09:33:01;;;;;;;5.88;3.42;;;15.50;44.80;;;;;;5055071;28;20045;-84
2021/04/25 09:35:29;;;;;;;9.07;4.15;;;14.80;45.70;;;;;;5054268;28;20056;-82
2021/04/25 09:37:56;;;;;;;5.85;3.60;;;15.10;44.90;;;;;;5062439;28;20408;-83
2021/04/25 09:40:26;;;;;;;7.35;3.17;;;15.30;44.80;;;;;;5064693;28;20383;-80
2021/04/25 09:43:09;;;;;;;6.50;3.60;;;15.60;44.20;;;;;;5053558;28;20362;-82
2021/04/25 09:45:57;;;;;;;10.30;4.13;;;15.60;44.90;;;;;;5054113;28;20036;-83
2021/04/25 09:48:30;;;;;;;5.90;3.70;;;15.40;44.80;;;;;;5054173;28;20417;-84
2021/04/25 09:51:18;;;;;;;10.10;3.60;;;15.30;44.60;;;;;;5054382;28;20039;-86
2021/04/25 09:53:50;;;;;;;6.63;3.47;;;15.10;45.10;;;;;;5053245;28;20393;-85
2021/04/25 09:56:38;;;;;;;9.75;4.22;;;14.60;45.70;;;;;;5066261;28;20036;-82
2021/04/25 09:59:06;;;;;;;5.47;3.72;;;15.20;45.30;;;;;;5054154;28;20032;-84
2021/04/25 10:01:41;;;;;;;6.28;3.13;;;15.10;45.40;;;;;;5053510;28;20561;-81
2021/04/25 10:04:30;;;;;;;8.45;3.78;;;15.90;42.90;;;;;;5067893;28;20037;-81
2021/04/25 10:06:58;;;;;;;6.78;3.92;;;16.00;41.50;;;;;;5059718;28;20041;-79
2021/04/25 10:09:25;;;;;;;6.20;3.30;;;15.50;42.40;;;;;;5065819;28;20490;-79
2021/04/25 10:11:54;;;;;;;8.77;3.78;;;15.80;42.90;;;;;;5052366;28;20370;-84
2021/04/25 10:14:20;;;;;;;9.85;4.35;;;15.20;43.20;;;;;;5072969;28;20032;-81
2021/04/25 10:16:47;;;;;;;8.00;4.13;;;14.80;44.10;;;;;;5053918;28;20032;-81
2021/04/25 10:19:14;;;;;;;7.38;3.90;;;14.20;45.00;;;;;;5053257;28;20037;-84
2021/04/25 10:21:44;;;;;;;7.43;3.22;;;14.00;45.50;;;;;;5052253;28;20041;-84
2021/04/25 10:24:16;;;;;;;6.88;3.83;;;13.60;45.40;;;;;;5053152;28;20466;-82
2021/04/25 10:26:57;;;;;;;8.10;3.58;;;13.70;45.20;;;;;;5052389;28;20028;-83
2021/04/25 10:29:28;;;;;;;7.78;3.65;;;14.10;44.60;;;;;;5052859;28;20040;-80
2021/04/25 10:31:59;;;;;;;7.63;4.00;;;14.20;44.70;;;;;;5069888;28;20379;-82
2021/04/25 10:34:27;;;;;;;7.80;3.30;;;14.30;44.30;;;;;;5052702;28;20037;-83
2021/04/25 10:36:55;;;;;;;9.20;3.65;;;14.30;45.00;;;;;;5059936;28;20028;-81
2021/04/25 10:39:50;;;;;;;8.95;4.30;;;13.50;44.70;;;;;;5059965;28;20048;-80
2021/04/25 10:45:07;;;;;;;6.65;3.22;;;13.70;45.40;;;;;;5052033;28;20364;-82
2021/04/25 10:47:40;;;;;;;6.90;3.42;;;14.10;43.40;;;;;;5055612;28;20696;-81
2021/04/25 10:50:10;;;;;;;4.68;2.70;;;14.10;43.70;;;;;;5070255;28;20040;-84
2021/04/25 10:52:37;;;;;;;8.55;3.45;;;14.10;43.40;;;;;;5068708;28;21822;-84
2021/04/25 10:55:12;;;;;;;6.35;3.30;;;13.90;44.20;;;;;;5063412;28;20131;-87
2021/04/25 10:57:54;;;;;;;6.85;3.05;;;13.80;43.00;;;;;;5057835;28;20131;-81
2021/04/25 11:00:37;;;;;;;7.45;3.47;;;14.20;44.00;;;;;;5059232;28;20041;-85
2021/04/25 11:03:33;;;;;;;6.18;3.05;;;14.20;44.00;;;;;;5055625;28;20048;-84
2021/04/25 11:06:00;;;;;;;7.10;3.28;;;14.00;44.40;;;;;;5053159;28;20033;-85
2021/04/25 11:08:29;;;;;;;4.93;2.83;;;14.60;43.80;;;;;;5064735;28;20037;-82
2021/04/25 11:10:56;;;;;;;5.93;3.33;;;14.60;42.80;;;;;;5059194;28;20484;-81
2021/04/25 11:13:34;;;;;;;7.95;3.33;;;14.30;42.90;;;;;;5052941;28;20025;-83
2021/04/25 11:16:09;;;;;;;7.97;2.90;;;13.60;43.20;;;;;;5064032;28;20045;-84
2021/04/25 11:19:04;;;;;;;9.30;2.97;;;14.00;43.60;;;;;;5052236;28;20044;-84
2021/04/25 11:21:34;;;;;;;5.72;3.10;;;14.10;42.50;;;;;;5060521;28;20056;-83
2021/04/25 11:29:11;;;;;;;4.78;2.85;;;13.80;42.40;;;;;;5058743;28;20052;-82
2021/04/25 11:31:47;;;;;;;7.18;3.08;;;14.20;43.00;;;;;;5065820;28;20029;-82
2021/04/25 11:34:25;;;;;;;7.60;3.95;;;14.30;41.60;;;;;;5054866;28;20040;-82
2021/04/25 11:36:54;;;;;;;7.72;2.75;;;14.40;42.20;;;;;;5067556;28;20043;-84
2021/04/25 11:39:28;;;;;;;6.97;3.08;;;14.40;42.80;;;;;;5056569;28;20025;-84
2021/04/25 11:41:55;;;;;;;6.35;2.55;;;14.60;41.60;;;;;;5063114;28;20108;-83
2021/04/25 11:44:29;;;;;;;5.25;2.90;;;14.50;42.20;;;;;;5053152;28;20033;-87
2021/04/25 11:46:57;;;;;;;7.82;2.70;;;14.70;40.70;;;;;;5051623;28;20037;-82
2021/04/25 11:49:39;;;;;;;6.22;2.30;;;14.30;40.50;;;;;;5053094;28;20036;-78
2021/04/25 11:52:07;;;;;;;6.07;2.40;;;14.60;40.40;;;;;;5058650;28;20033;-82
2021/04/25 11:54:34;;;;;;;4.20;2.40;;;14.90;40.00;;;;;;5057739;28;20044;-82
2021/04/25 11:57:28;;;;;;;4.63;2.42;;;14.80;40.10;;;;;;5056617;28;20041;-85
2021/04/25 11:59:57;;;;;;;4.20;1.92;;;14.60;40.10;;;;;;5060753;28;20052;-81
2021/04/25 12:02:32;;;;;;;4.32;1.80;;;15.00;40.00;;;;;;5068427;28;20032;-77
2021/04/25 12:05:00;;;;;;;4.63;2.55;;;14.80;40.00;;;;;;5068188;28;20148;-77
2021/04/25 12:07:35;;;;;;;8.27;2.20;;;14.90;40.70;;;;;;5068465;28;20044;-78
2021/04/25 12:10:12;;;;;;;6.55;2.50;;;14.90;41.30;;;;;;5066738;28;20029;-79
2021/04/25 12:13:00;;;;;;;7.82;2.08;;;15.00;41.20;;;;;;5062410;28;20037;-79
2021/04/25 12:15:40;;;;;;;6.03;2.28;;;15.00;40.00;;;;;;5055997;28;20033;-79
2021/04/25 12:18:06;;;;;;;3.70;1.63;;;14.70;40.40;;;;;;5066683;28;20482;-78
2021/04/25 12:20:42;;;;;;;4.95;2.70;;;15.10;38.60;;;;;;5054503;28;20047;-80
2021/04/25 12:23:13;;;;;;;9.32;3.50;;;14.90;38.40;;;;;;5057218;28;20032;-79
2021/04/25 12:25:39;;;;;;;;;;;15.00;38.50;;;;;;5054259;28;20052;-76
2021/04/25 12:28:06;;;;;;;5.07;2.30;;;15.20;39.40;;;;;;5065496;28;19909;-76
2021/04/25 12:30:33;;;;;;;6.90;2.90;;;15.20;39.80;;;;;;5050929;28;20478;-77
2021/04/25 12:33:04;;;;;;;4.90;2.35;;;14.90;39.00;;;;;;5050975;28;20064;-76
2021/04/25 12:35:35;;;;;;;5.20;2.47;;;15.10;38.30;;;;;;5053818;28;20056;-77
2021/04/25 12:38:20;;;;;;;6.45;3.20;;;15.30;39.30;;;;;;5054494;28;20029;-76
2021/04/25 12:41:17;;;;;;;7.05;2.33;;;15.10;39.50;;;;;;5068539;28;20048;-77
2021/04/25 12:43:45;;;;;;;4.38;2.17;;;15.00;38.90;;;;;;5037436;28;20041;-77
2021/04/25 12:46:20;;;;;;;7.88;2.95;;;15.30;39.60;;;;;;5066352;28;20098;-76
2021/04/25 12:48:59;;;;;;;6.85;2.50;;;15.40;39.40;;;;;;5054402;28;20037;-76
2021/04/25 12:51:42;;;;;;;6.57;1.95;;;14.80;39.70;;;;;;5054455;28;20130;-76
2021/04/25 12:54:12;;;;;;;4.20;2.28;;;15.30;39.00;;;;;;5066868;28;20047;-76
2021/04/25 12:56:43;;;;;;;5.05;2.17;;;15.30;38.70;;;;;;5054085;28;20032;-78
2021/04/25 12:59:30;;;;;;;3.67;2.22;;;15.50;39.10;;;;;;5054664;28;20033;-76
2021/04/25 13:01:56;;;;;;;4.97;2.15;;;15.60;38.50;;;;;;5054384;28;20037;-76
2021/04/25 13:04:48;;;;;;;5.20;1.77;;;15.30;40.10;;;;;;5068203;28;20036;-77